Time;durP1;ratioP1;P1;durP2;ratioP2;P2;SDS_P1;SDS_P2;PMS_P1;PMS_P2;Temp;Humidity;BMP_temperature;BMP_pressure;BME280_temperature;BME280_humidity;BME280_pressure;Samples;Min_cycle;Max_cycle;Signal;HPM_P1;HPM_P2
2023/07/14 00:00:13;;;;;;;3.40;1.90;;;;;;;;;;5031964;28;20618;-76
2023/07/14 00:02:39;;;;;;;2.17;1.40;;;;;;;;;;5038634;28;20197;-76
2023/07/14 00:05:06;;;;;;;2.00;1.70;;;;;;;;;;5032028;28;20240;-76
2023/07/14 00:07:32;;;;;;;3.57;1.70;;;;;;;;;;5035398;28;20186;-76
2023/07/14 00:09:58;;;;;;;3.40;1.70;;;;;;;;;;5035969;28;20182;-76
2023/07/14 00:12:24;;;;;;;3.63;1.70;;;;;;;;;;5031198;28;20186;-76
2023/07/14 00:14:50;;;;;;;2.13;1.67;;;;;;;;;;5036354;28;20209;-76
2023/07/14 00:17:17;;;;;;;2.30;1.80;;;;;;;;;;5033907;28;20171;-76
2023/07/14 00:19:44;;;;;;;1.67;1.40;;;;;;;;;;5038155;28;20209;-76
2023/07/14 00:22:14;;;;;;;1.97;1.70;;;;;;;;;;5045857;28;20669;-76
2023/07/14 00:24:42;;;;;;;2.43;1.80;;;;;;;;;;5031673;28;20195;-76
2023/07/14 00:27:26;;;;;;;2.63;1.77;;;;;;;;;;5030857;28;20185;-76
2023/07/14 00:29:53;;;;;;;1.90;1.60;;;;;;;;;;5031964;28;20193;-76
2023/07/14 00:32:22;;;;;;;3.80;1.87;;;;;;;;;;5030983;28;20198;-76
2023/07/14 00:34:49;;;;;;;3.13;1.67;;;;;;;;;;5044496;28;20296;-76
2023/07/14 00:37:15;;;;;;;2.67;1.73;;;;;;;;;;5038765;28;20709;-76
2023/07/14 00:39:41;;;;;;;2.50;1.70;;;;;;;;;;5031618;28;20519;-76
2023/07/14 00:42:11;;;;;;;1.77;1.50;;;;;;;;;;5030317;28;20210;-75
2023/07/14 00:44:37;;;;;;;2.43;1.60;;;;;;;;;;5029852;28;20218;-76
2023/07/14 00:47:05;;;;;;;3.57;1.70;;;;;;;;;;5029301;28;20186;-76
2023/07/14 00:49:34;;;;;;;4.10;1.80;;;;;;;;;;5030274;28;20189;-76
2023/07/14 00:52:04;;;;;;;4.43;1.80;;;;;;;;;;5031328;28;20175;-76
2023/07/14 00:54:30;;;;;;;3.03;1.80;;;;;;;;;;5030450;28;20202;-78
2023/07/14 00:56:57;;;;;;;3.13;1.97;;;;;;;;;;5029094;28;20180;-79
2023/07/14 00:59:33;;;;;;;3.00;1.77;;;;;;;;;;5024926;28;20236;-76
2023/07/14 01:02:12;;;;;;;1.83;1.60;;;;;;;;;;5030812;28;20201;-77
2023/07/14 01:04:40;;;;;;;3.90;1.60;;;;;;;;;;5032384;28;20249;-76
2023/07/14 01:07:08;;;;;;;2.80;1.90;;;;;;;;;;5027851;28;20285;-76
2023/07/14 01:09:35;;;;;;;4.00;2.10;;;;;;;;;;5029896;28;20174;-76
2023/07/14 01:12:02;;;;;;;2.80;1.60;;;;;;;;;;5031195;28;20657;-77
2023/07/14 01:14:33;;;;;;;2.50;1.50;;;;;;;;;;5038992;28;20688;-76
2023/07/14 01:17:00;;;;;;;3.87;1.90;;;;;;;;;;5035101;28;20179;-77
2023/07/14 01:19:43;;;;;;;2.03;1.53;;;;;;;;;;5031105;28;20289;-76
2023/07/14 01:22:28;;;;;;;3.30;1.60;;;;;;;;;;5030101;28;20198;-76
2023/07/14 01:25:06;;;;;;;2.63;1.57;;;;;;;;;;5037196;28;20202;-76
2023/07/14 01:27:32;;;;;;;3.93;1.83;;;;;;;;;;5036291;28;20170;-76
2023/07/14 01:29:59;;;;;;;4.57;1.70;;;;;;;;;;5036917;28;20316;-76
2023/07/14 01:32:31;;;;;;;4.03;1.97;;;;;;;;;;5039251;28;20178;-78
2023/07/14 01:34:58;;;;;;;2.40;1.73;;;;;;;;;;5035335;28;20197;-78
2023/07/14 01:37:24;;;;;;;5.03;1.80;;;;;;;;;;5042442;28;20178;-78
2023/07/14 01:39:52;;;;;;;2.70;1.90;;;;;;;;;;5029829;28;20189;-77
2023/07/14 01:42:19;;;;;;;2.33;1.60;;;;;;;;;;5031347;28;20206;-77
2023/07/14 01:44:46;;;;;;;2.57;1.80;;;;;;;;;;5037469;28;20298;-76
2023/07/14 01:47:13;;;;;;;2.10;1.70;;;;;;;;;;5028669;28;20261;-76
2023/07/14 01:49:50;;;;;;;5.03;2.00;;;;;;;;;;5029792;28;20229;-76
2023/07/14 01:52:21;;;;;;;5.20;1.83;;;;;;;;;;5031059;28;20205;-78
2023/07/14 01:54:50;;;;;;;2.43;1.67;;;;;;;;;;5033512;28;20207;-76
2023/07/14 01:57:19;;;;;;;4.27;1.80;;;;;;;;;;5045284;28;20339;-76
2023/07/14 01:59:48;;;;;;;2.77;1.70;;;;;;;;;;5031893;28;20646;-76
2023/07/14 02:02:20;;;;;;;2.73;1.70;;;;;;;;;;5013133;28;20242;-76
2023/07/14 02:04:48;;;;;;;3.23;1.80;;;;;;;;;;5035364;28;20248;-78
2023/07/14 02:07:15;;;;;;;3.90;1.97;;;;;;;;;;5038857;28;20535;-75
2023/07/14 02:09:42;;;;;;;3.43;1.73;;;;;;;;;;5047944;28;20226;-75
2023/07/14 02:12:20;;;;;;;2.30;2.00;;;;;;;;;;5014724;28;20550;-76
2023/07/14 02:14:51;;;;;;;2.30;1.60;;;;;;;;;;5027765;28;20210;-76
2023/07/14 02:17:25;;;;;;;4.13;2.00;;;;;;;;;;5032804;28;20174;-76
2023/07/14 02:19:52;;;;;;;2.67;1.90;;;;;;;;;;5033142;28;20185;-76
2023/07/14 02:22:20;;;;;;;2.43;1.80;;;;;;;;;;5034352;28;20206;-76
2023/07/14 02:24:47;;;;;;;3.97;1.80;;;;;;;;;;5033073;28;20191;-76
2023/07/14 02:27:13;;;;;;;2.87;1.60;;;;;;;;;;5015753;28;20175;-76
2023/07/14 02:29:39;;;;;;;3.67;2.00;;;;;;;;;;5032820;28;20182;-76
2023/07/14 02:32:05;;;;;;;2.27;1.80;;;;;;;;;;5025322;28;20218;-77
2023/07/14 02:34:34;;;;;;;2.83;1.80;;;;;;;;;;5032775;28;20586;-77
2023/07/14 02:37:02;;;;;;;3.13;1.80;;;;;;;;;;5041762;28;20186;-76
2023/07/14 02:39:36;;;;;;;2.80;1.93;;;;;;;;;;5040891;28;20177;-76
2023/07/14 02:42:03;;;;;;;2.47;1.67;;;;;;;;;;5041248;28;20191;-76
2023/07/14 02:44:33;;;;;;;2.53;1.67;;;;;;;;;;5036454;28;20527;-76
2023/07/14 02:47:02;;;;;;;3.33;1.73;;;;;;;;;;5040250;28;20183;-76
2023/07/14 02:49:28;;;;;;;3.77;1.90;;;;;;;;;;5035204;28;20178;-76
2023/07/14 02:51:55;;;;;;;1.90;1.70;;;;;;;;;;5036931;28;20204;-76
2023/07/14 02:54:23;;;;;;;4.03;1.83;;;;;;;;;;5033231;28;20738;-76
2023/07/14 02:56:49;;;;;;;4.87;1.83;;;;;;;;;;4997724;28;20274;-76
2023/07/14 02:59:16;;;;;;;4.60;1.60;;;;;;;;;;5017949;28;20193;-81
2023/07/14 03:01:42;;;;;;;2.37;1.93;;;;;;;;;;5014003;28;20205;-78
2023/07/14 03:04:09;;;;;;;5.27;1.97;;;;;;;;;;5033709;28;20199;-78
2023/07/14 03:06:35;;;;;;;4.23;1.90;;;;;;;;;;5037232;28;20195;-76
2023/07/14 03:09:01;;;;;;;2.20;1.90;;;;;;;;;;5039102;28;20186;-76
2023/07/14 03:11:28;;;;;;;5.13;2.10;;;;;;;;;;5033103;28;20532;-75
2023/07/14 03:13:54;;;;;;;2.10;1.73;;;;;;;;;;5031863;28;20682;-75
2023/07/14 03:16:20;;;;;;;3.80;1.73;;;;;;;;;;5032602;28;20552;-76
2023/07/14 03:18:48;;;;;;;3.00;2.10;;;;;;;;;;5021509;28;20669;-76
2023/07/14 03:21:14;;;;;;;2.50;1.90;;;;;;;;;;5030412;28;20209;-76
2023/07/14 03:23:40;;;;;;;3.17;1.90;;;;;;;;;;5031133;28;20175;-76
2023/07/14 03:26:07;;;;;;;2.47;1.90;;;;;;;;;;5036373;28;20182;-76
2023/07/14 03:28:34;;;;;;;4.10;2.00;;;;;;;;;;5025812;28;20289;-77
2023/07/14 03:31:01;;;;;;;2.97;1.93;;;;;;;;;;5033001;28;20181;-76
2023/07/14 03:33:27;;;;;;;4.00;1.90;;;;;;;;;;5031948;28;20182;-75
2023/07/14 03:35:54;;;;;;;3.30;2.00;;;;;;;;;;5044115;28;20690;-76
2023/07/14 03:38:20;;;;;;;2.50;1.90;;;;;;;;;;5030594;28;20210;-76
2023/07/14 03:40:47;;;;;;;5.03;1.77;;;;;;;;;;5031504;28;20292;-75
2023/07/14 03:43:13;;;;;;;2.80;1.70;;;;;;;;;;5037027;28;20707;-75
2023/07/14 03:45:40;;;;;;;6.03;2.20;;;;;;;;;;5045361;28;20195;-78
2023/07/14 03:48:06;;;;;;;3.23;2.10;;;;;;;;;;5031947;28;20547;-78
2023/07/14 03:50:33;;;;;;;3.57;2.27;;;;;;;;;;5035242;28;20551;-77
2023/07/14 03:53:00;;;;;;;2.57;2.10;;;;;;;;;;5044817;28;20210;-76
2023/07/14 03:55:26;;;;;;;4.37;2.00;;;;;;;;;;5048939;28;20202;-78
2023/07/14 03:57:52;;;;;;;3.70;2.20;;;;;;;;;;5051713;28;20197;-78
2023/07/14 04:00:18;;;;;;;2.10;1.87;;;;;;;;;;5049465;28;20179;-77
2023/07/14 04:02:46;;;;;;;3.33;1.90;;;;;;;;;;5021234;28;20704;-76
2023/07/14 04:05:14;;;;;;;3.07;2.10;;;;;;;;;;5034485;28;20198;-76
2023/07/14 04:07:41;;;;;;;3.80;1.83;;;;;;;;;;5027653;28;20874;-76
2023/07/14 04:10:08;;;;;;;2.00;1.63;;;;;;;;;;5038496;28;20226;-75
2023/07/14 04:12:35;;;;;;;2.90;1.80;;;;;;;;;;5032264;28;20237;-76
2023/07/14 04:15:02;;;;;;;3.03;1.90;;;;;;;;;;5030990;28;20599;-75
2023/07/14 04:17:29;;;;;;;2.47;1.80;;;;;;;;;;5031250;28;20171;-75
2023/07/14 04:19:55;;;;;;;4.30;2.00;;;;;;;;;;5031079;28;20186;-76
2023/07/14 04:22:21;;;;;;;2.83;1.97;;;;;;;;;;5031994;28;20206;-76
2023/07/14 04:24:47;;;;;;;2.87;2.10;;;;;;;;;;5032907;28;20278;-76
2023/07/14 04:27:14;;;;;;;2.73;1.90;;;;;;;;;;5030119;28;20175;-76
2023/07/14 04:29:40;;;;;;;3.90;2.10;;;;;;;;;;5031711;28;20175;-75
2023/07/14 04:32:07;;;;;;;4.10;2.47;;;;;;;;;;5034126;28;20687;-75
2023/07/14 04:34:34;;;;;;;3.67;2.27;;;;;;;;;;5041133;28;20202;-76
2023/07/14 04:37:00;;;;;;;3.80;2.40;;;;;;;;;;5028809;28;20226;-76
2023/07/14 04:39:27;;;;;;;3.53;2.10;;;;;;;;;;5031565;28;20205;-77
2023/07/14 04:41:54;;;;;;;3.20;2.20;;;;;;;;;;5030360;28;20248;-76
2023/07/14 04:44:20;;;;;;;3.50;2.10;;;;;;;;;;5031185;28;20221;-76
2023/07/14 04:46:48;;;;;;;2.80;1.70;;;;;;;;;;5029174;28;20182;-76
2023/07/14 04:49:17;;;;;;;2.80;1.87;;;;;;;;;;5028899;28;20185;-76
2023/07/14 04:51:45;;;;;;;3.87;2.00;;;;;;;;;;5032576;28;20189;-79
2023/07/14 04:54:12;;;;;;;1.80;1.70;;;;;;;;;;5035997;28;20685;-78
2023/07/14 04:56:43;;;;;;;2.87;2.10;;;;;;;;;;5033247;28;20541;-77
2023/07/14 04:59:10;;;;;;;2.30;2.10;;;;;;;;;;5030427;28;20187;-75
2023/07/14 05:01:37;;;;;;;3.27;2.00;;;;;;;;;;5030718;28;20205;-77
2023/07/14 05:04:03;;;;;;;3.97;2.00;;;;;;;;;;5043855;28;21974;-77
2023/07/14 05:06:31;;;;;;;3.00;1.90;;;;;;;;;;5034451;28;20192;-76
2023/07/14 05:08:57;;;;;;;3.43;2.10;;;;;;;;;;5030365;28;20188;-75
2023/07/14 05:11:24;;;;;;;3.10;2.03;;;;;;;;;;5031631;28;20171;-76
2023/07/14 05:13:53;;;;;;;2.63;2.10;;;;;;;;;;5031237;28;20208;-77
2023/07/14 05:16:20;;;;;;;3.77;2.20;;;;;;;;;;5044025;28;20189;-76
2023/07/14 05:18:46;;;;;;;8.43;2.37;;;;;;;;;;5044986;28;20273;-73
2023/07/14 05:21:12;;;;;;;5.00;2.40;;;;;;;;;;5031141;28;20178;-72
2023/07/14 05:23:39;;;;;;;4.17;2.33;;;;;;;;;;5035601;28;20200;-71
2023/07/14 05:26:05;;;;;;;4.63;2.47;;;;;;;;;;5041020;28;20185;-73
2023/07/14 05:28:31;;;;;;;5.17;2.40;;;;;;;;;;5031927;28;20178;-72
2023/07/14 05:31:00;;;;;;;3.10;1.87;;;;;;;;;;5037349;28;20651;-76
2023/07/14 05:33:26;;;;;;;4.83;2.17;;;;;;;;;;5029794;28;20672;-73
2023/07/14 05:35:52;;;;;;;3.90;2.00;;;;;;;;;;5030767;28;20209;-73
2023/07/14 05:38:18;;;;;;;6.10;2.13;;;;;;;;;;5048427;28;20548;-72
2023/07/14 05:40:52;;;;;;;4.27;1.90;;;;;;;;;;5043160;28;20194;-72
2023/07/14 05:43:18;;;;;;;4.30;2.10;;;;;;;;;;5028495;28;20202;-72
2023/07/14 05:45:47;;;;;;;4.63;2.00;;;;;;;;;;5036548;28;20583;-72
2023/07/14 05:48:17;;;;;;;3.80;2.03;;;;;;;;;;5054330;28;20174;-72
2023/07/14 05:50:47;;;;;;;3.20;1.90;;;;;;;;;;5034765;28;20178;-72
2023/07/14 05:53:15;;;;;;;3.73;1.70;;;;;;;;;;5035291;28;20183;-72
2023/07/14 05:55:41;;;;;;;2.03;1.80;;;;;;;;;;5053089;28;20741;-72
2023/07/14 05:58:07;;;;;;;5.07;1.80;;;;;;;;;;5033713;28;20186;-71
2023/07/14 06:00:38;;;;;;;4.67;2.00;;;;;;;;;;5039211;28;20236;-70
2023/07/14 06:03:06;;;;;;;4.40;2.20;;;;;;;;;;5050998;28;20209;-75
2023/07/14 06:05:32;;;;;;;6.37;2.20;;;;;;;;;;5046502;28;20201;-72
2023/07/14 06:07:58;;;;;;;3.93;2.00;;;;;;;;;;5037911;28;20249;-74
2023/07/14 06:10:25;;;;;;;3.57;2.10;;;;;;;;;;5031007;28;20183;-74
2023/07/14 06:12:51;;;;;;;3.27;2.10;;;;;;;;;;5039579;28;20270;-73
2023/07/14 06:15:17;;;;;;;2.67;1.83;;;;;;;;;;5033961;28;20210;-73
2023/07/14 06:17:43;;;;;;;4.70;2.10;;;;;;;;;;5034990;28;20253;-72
2023/07/14 06:20:11;;;;;;;2.50;1.63;;;;;;;;;;5043235;28;20597;-73
2023/07/14 06:22:38;;;;;;;4.20;1.97;;;;;;;;;;5054349;28;20217;-73
2023/07/14 06:25:04;;;;;;;2.83;1.90;;;;;;;;;;5051731;28;20193;-74
2023/07/14 06:27:33;;;;;;;3.87;2.37;;;;;;;;;;5040581;28;20193;-73
2023/07/14 06:29:59;;;;;;;2.70;1.90;;;;;;;;;;5034789;28;20208;-75
2023/07/14 06:32:25;;;;;;;4.00;2.03;;;;;;;;;;5041907;28;20571;-74
2023/07/14 06:34:52;;;;;;;4.57;2.37;;;;;;;;;;5024043;28;20276;-73
2023/07/14 06:37:18;;;;;;;3.37;2.30;;;;;;;;;;5037753;28;20182;-73
2023/07/14 06:39:44;;;;;;;4.07;2.37;;;;;;;;;;5027783;28;20554;-73
2023/07/14 06:42:10;;;;;;;3.67;2.40;;;;;;;;;;5028178;28;20206;-71
2023/07/14 06:44:36;;;;;;;4.07;2.10;;;;;;;;;;5027654;28;20210;-74
2023/07/14 06:47:02;;;;;;;5.03;2.50;;;;;;;;;;5033152;28;20178;-72
2023/07/14 06:49:29;;;;;;;5.53;2.13;;;;;;;;;;5031647;28;20260;-74
2023/07/14 06:51:55;;;;;;;4.73;2.20;;;;;;;;;;5026804;28;20646;-72
2023/07/14 06:54:21;;;;;;;2.93;2.27;;;;;;;;;;5030573;28;20202;-72
2023/07/14 06:56:47;;;;;;;3.00;2.13;;;;;;;;;;5030346;28;20240;-72
2023/07/14 06:59:14;;;;;;;4.17;2.07;;;;;;;;;;5032074;28;20191;-72
2023/07/14 07:01:40;;;;;;;2.40;1.97;;;;;;;;;;5032212;28;20264;-73
2023/07/14 07:04:06;;;;;;;3.90;2.03;;;;;;;;;;5031219;28;20671;-74
2023/07/14 07:06:32;;;;;;;2.77;2.00;;;;;;;;;;5031798;28;20182;-74
2023/07/14 07:08:58;;;;;;;3.30;1.90;;;;;;;;;;5030082;28;20178;-74
2023/07/14 07:11:24;;;;;;;4.07;2.17;;;;;;;;;;5032371;28;20559;-73
2023/07/14 07:13:51;;;;;;;3.90;1.93;;;;;;;;;;5030939;28;20206;-73
2023/07/14 07:16:17;;;;;;;2.70;1.80;;;;;;;;;;5027292;28;20202;-72
2023/07/14 07:18:43;;;;;;;3.83;1.90;;;;;;;;;;5030018;28;20552;-73
2023/07/14 07:21:12;;;;;;;2.83;2.00;;;;;;;;;;5031382;28;20171;-73
2023/07/14 07:23:39;;;;;;;2.50;1.73;;;;;;;;;;5031937;28;20182;-75
2023/07/14 07:26:06;;;;;;;3.57;2.00;;;;;;;;;;5029278;28;20244;-71
2023/07/14 07:28:32;;;;;;;3.63;2.03;;;;;;;;;;5029941;28;20178;-71
2023/07/14 07:30:58;;;;;;;3.80;1.90;;;;;;;;;;5031702;28;20186;-70
2023/07/14 07:33:24;;;;;;;4.33;1.97;;;;;;;;;;5030817;28;20181;-72
2023/07/14 07:35:54;;;;;;;5.20;2.10;;;;;;;;;;5031255;28;20877;-73
2023/07/14 07:38:21;;;;;;;5.23;1.97;;;;;;;;;;5025289;28;20182;-74
2023/07/14 07:40:48;;;;;;;4.37;2.00;;;;;;;;;;5027744;28;20813;-74
2023/07/14 07:43:14;;;;;;;3.23;1.80;;;;;;;;;;5029493;28;20587;-73
2023/07/14 07:45:48;;;;;;;2.43;1.63;;;;;;;;;;5032567;28;20281;-73
2023/07/14 07:48:14;;;;;;;2.90;1.70;;;;;;;;;;5030843;28;20280;-72
2023/07/14 07:50:41;;;;;;;2.93;1.90;;;;;;;;;;5029820;28;20174;-73
2023/07/14 07:53:07;;;;;;;4.37;1.70;;;;;;;;;;5029196;28;20536;-73
2023/07/14 07:55:33;;;;;;;5.30;1.90;;;;;;;;;;5032092;28;20682;-73
2023/07/14 07:57:59;;;;;;;4.37;1.60;;;;;;;;;;5029822;28;20669;-73
2023/07/14 08:00:26;;;;;;;5.17;1.60;;;;;;;;;;5031237;28;20191;-72
2023/07/14 08:02:52;;;;;;;3.30;1.57;;;;;;;;;;5031562;28;20236;-76
2023/07/14 08:05:18;;;;;;;2.83;1.50;;;;;;;;;;5031981;28;20229;-74
2023/07/14 08:07:44;;;;;;;3.30;1.50;;;;;;;;;;5030548;28;20264;-76
2023/07/14 08:10:10;;;;;;;3.70;1.70;;;;;;;;;;5027257;28;20194;-74
2023/07/14 08:12:36;;;;;;;2.80;1.50;;;;;;;;;;5028758;28;20232;-73
2023/07/14 08:15:03;;;;;;;2.27;1.50;;;;;;;;;;5029746;28;20210;-75
2023/07/14 08:17:34;;;;;;;5.67;1.57;;;;;;;;;;5031385;28;20557;-75
2023/07/14 08:20:00;;;;;;;3.27;1.47;;;;;;;;;;5032421;28;20191;-76
2023/07/14 08:22:27;;;;;;;3.70;1.87;;;;;;;;;;5032004;28;20698;-73
2023/07/14 08:24:55;;;;;;;4.33;1.77;;;;;;;;;;5032090;28;20218;-73
2023/07/14 08:27:21;;;;;;;2.17;1.50;;;;;;;;;;5031577;28;20182;-73
2023/07/14 08:29:47;;;;;;;3.93;1.70;;;;;;;;;;5031012;28;20265;-73
2023/07/14 08:32:15;;;;;;;2.30;1.40;;;;;;;;;;5031728;28;20190;-74
2023/07/14 08:34:41;;;;;;;4.73;1.77;;;;;;;;;;5032004;28;20641;-74
2023/07/14 08:37:07;;;;;;;3.47;1.70;;;;;;;;;;5031606;28;20190;-76
2023/07/14 08:39:34;;;;;;;4.37;1.50;;;;;;;;;;5031842;28;20248;-74
2023/07/14 08:42:04;;;;;;;2.77;1.40;;;;;;;;;;5031958;28;20211;-74
2023/07/14 08:44:31;;;;;;;3.67;1.70;;;;;;;;;;5030731;28;20733;-74
2023/07/14 08:47:16;;;;;;;3.63;1.70;;;;;;;;;;5030916;28;20250;-76
2023/07/14 08:49:53;;;;;;;3.47;1.80;;;;;;;;;;5044098;28;20178;-74
2023/07/14 08:52:34;;;;;;;6.67;1.70;;;;;;;;;;5027989;28;20194;-74
2023/07/14 08:55:15;;;;;;;4.50;1.70;;;;;;;;;;5029844;28;20269;-74
2023/07/14 08:57:50;;;;;;;3.43;1.50;;;;;;;;;;5031174;28;20261;-74
2023/07/14 09:00:21;;;;;;;1.97;1.50;;;;;;;;;;5031762;28;20562;-73
2023/07/14 09:02:59;;;;;;;1.93;1.60;;;;;;;;;;5030000;28;20214;-74
2023/07/14 09:05:27;;;;;;;4.73;1.83;;;;;;;;;;5029018;28;20198;-75
2023/07/14 09:07:54;;;;;;;2.73;1.47;;;;;;;;;;5030532;28;20171;-75
2023/07/14 09:10:37;;;;;;;2.13;1.53;;;;;;;;;;5029258;28;20189;-74
2023/07/14 09:13:22;;;;;;;3.33;1.60;;;;;;;;;;5030342;28;20189;-74
2023/07/14 09:15:48;;;;;;;2.43;1.60;;;;;;;;;;5029601;28;20221;-74
2023/07/14 09:18:21;;;;;;;2.97;1.63;;;;;;;;;;5030398;28;20661;-79
2023/07/14 09:20:58;;;;;;;2.77;1.60;;;;;;;;;;5029624;28;20205;-76
2023/07/14 09:23:44;;;;;;;4.17;1.60;;;;;;;;;;5028925;28;20202;-74
2023/07/14 09:26:13;;;;;;;6.63;1.93;;;;;;;;;;5030992;28;20184;-75
2023/07/14 09:28:45;;;;;;;2.33;1.60;;;;;;;;;;5027652;28;20186;-73
2023/07/14 09:31:15;;;;;;;4.07;1.70;;;;;;;;;;5024564;28;20175;-76
2023/07/14 09:33:47;;;;;;;2.10;1.50;;;;;;;;;;5025723;28;20267;-75
2023/07/14 09:36:13;;;;;;;2.83;1.87;;;;;;;;;;5027394;28;20190;-78
2023/07/14 09:38:39;;;;;;;3.17;1.50;;;;;;;;;;5026237;28;20205;-75
2023/07/14 09:41:06;;;;;;;3.90;1.80;;;;;;;;;;5026731;28;20182;-76
2023/07/14 09:43:32;;;;;;;1.93;1.50;;;;;;;;;;5030849;28;20209;-74
2023/07/14 09:46:00;;;;;;;2.63;1.70;;;;;;;;;;5030932;28;20287;-74
2023/07/14 09:48:31;;;;;;;2.20;1.43;;;;;;;;;;5030670;28;20205;-75
2023/07/14 09:51:06;;;;;;;3.30;1.70;;;;;;;;;;5028229;28;20202;-74
2023/07/14 09:53:33;;;;;;;4.40;1.77;;;;;;;;;;5036593;28;20182;-72
2023/07/14 09:56:15;;;;;;;2.10;1.50;;;;;;;;;;5030869;28;20642;-73
2023/07/14 09:58:50;;;;;;;6.13;1.93;;;;;;;;;;5037265;28;20205;-73
2023/07/14 10:01:16;;;;;;;1.97;1.60;;;;;;;;;;5040950;28;20182;-74
2023/07/14 10:03:47;;;;;;;3.87;2.73;;;;;;;;;;5011545;28;20263;-74
2023/07/14 10:06:21;;;;;;;22.77;20.20;;;;;;;;;;5010258;28;20206;-75
2023/07/14 10:08:50;;;;;;;9.43;5.90;;;;;;;;;;5027584;28;20163;-74
2023/07/14 10:11:20;;;;;;;9.47;2.40;;;;;;;;;;5030053;28;20563;-75
2023/07/14 10:13:50;;;;;;;4.93;1.97;;;;;;;;;;5027171;28;20662;-75
2023/07/14 10:16:17;;;;;;;4.13;1.70;;;;;;;;;;5030201;28;20190;-78
2023/07/14 10:18:56;;;;;;;3.23;1.90;;;;;;;;;;5036525;28;20183;-73
2023/07/14 10:21:24;;;;;;;5.20;2.27;;;;;;;;;;5029061;28;20210;-74
2023/07/14 10:23:56;;;;;;;2.70;1.73;;;;;;;;;;5029832;28;20187;-75
2023/07/14 10:26:24;;;;;;;4.37;1.73;;;;;;;;;;5033204;28;20171;-74
2023/07/14 10:28:51;;;;;;;4.03;2.00;;;;;;;;;;5036977;28;20194;-75
2023/07/14 10:31:20;;;;;;;2.87;1.97;;;;;;;;;;5034301;28;20241;-76
2023/07/14 10:33:52;;;;;;;2.23;1.73;;;;;;;;;;5033949;28;20193;-74
2023/07/14 10:36:20;;;;;;;3.00;1.63;;;;;;;;;;5029250;28;20182;-74
2023/07/14 10:39:07;;;;;;;2.40;1.60;;;;;;;;;;5031443;28;20273;-74
2023/07/14 10:41:34;;;;;;;2.47;1.60;;;;;;;;;;5016862;28;20596;-74
2023/07/14 10:44:03;;;;;;;4.77;2.10;;;;;;;;;;5035548;28;20214;-74
2023/07/14 10:46:40;;;;;;;4.40;2.00;;;;;;;;;;5032565;28;20244;-75
2023/07/14 10:49:15;;;;;;;3.10;1.70;;;;;;;;;;5031493;28;20186;-74
2023/07/14 10:51:45;;;;;;;3.80;2.10;;;;;;;;;;5033594;28;20277;-76
2023/07/14 10:54:11;;;;;;;2.00;1.63;;;;;;;;;;5038729;28;20201;-74
2023/07/14 10:56:43;;;;;;;4.10;2.10;;;;;;;;;;5033019;28;20191;-73
2023/07/14 10:59:15;;;;;;;3.83;1.90;;;;;;;;;;5037788;28;20563;-75
2023/07/14 11:01:50;;;;;;;6.60;1.70;;;;;;;;;;5033397;28;20619;-74
2023/07/14 11:04:22;;;;;;;3.50;1.90;;;;;;;;;;5040321;28;20662;-74
2023/07/14 11:06:49;;;;;;;2.90;1.80;;;;;;;;;;5027916;28;20191;-74
2023/07/14 11:09:16;;;;;;;5.40;1.80;;;;;;;;;;5030616;28;20178;-76
2023/07/14 11:11:53;;;;;;;2.60;1.90;;;;;;;;;;5030966;28;20303;-74
2023/07/14 11:14:44;;;;;;;3.63;1.60;;;;;;;;;;5031241;28;20294;-74
2023/07/14 11:17:30;;;;;;;2.57;1.73;;;;;;;;;;5031340;28;20197;-75
2023/07/14 11:20:08;;;;;;;3.27;1.70;;;;;;;;;;5031511;28;20252;-74
2023/07/14 11:22:37;;;;;;;2.77;1.70;;;;;;;;;;5031028;28;20218;-75
2023/07/14 11:25:10;;;;;;;3.90;1.80;;;;;;;;;;5031296;28;20204;-74
2023/07/14 11:27:38;;;;;;;3.80;2.07;;;;;;;;;;5031569;28;20259;-74
2023/07/14 11:30:10;;;;;;;5.27;1.83;;;;;;;;;;5031023;28;20198;-74
2023/07/14 11:32:46;;;;;;;2.97;1.80;;;;;;;;;;5029236;28;20814;-74
2023/07/14 11:35:20;;;;;;;3.80;2.00;;;;;;;;;;5029568;28;20213;-75
2023/07/14 11:38:03;;;;;;;3.30;1.83;;;;;;;;;;5031243;28;20183;-74
2023/07/14 11:40:34;;;;;;;2.73;1.87;;;;;;;;;;5031517;28;20473;-74
2023/07/14 11:43:01;;;;;;;2.90;2.10;;;;;;;;;;5030915;28;20210;-76
2023/07/14 11:45:29;;;;;;;2.30;1.83;;;;;;;;;;5032328;28;20211;-74
2023/07/14 11:47:56;;;;;;;2.90;2.10;;;;;;;;;;5032040;28;20262;-75
2023/07/14 11:50:24;;;;;;;2.67;1.73;;;;;;;;;;5032561;28;20643;-74
2023/07/14 11:53:12;;;;;;;2.73;1.80;;;;;;;;;;5032083;28;20233;-76
2023/07/14 11:55:40;;;;;;;5.03;2.00;;;;;;;;;;5031427;28;20209;-77
2023/07/14 11:58:16;;;;;;;4.07;2.13;;;;;;;;;;5031467;28;20187;-72
2023/07/14 12:00:46;;;;;;;1.93;1.70;;;;;;;;;;5031424;28;20186;-72
2023/07/14 12:03:47;;;;;;;3.87;1.83;;;;;;;;;;5030733;28;20993;-72
2023/07/14 12:06:19;;;;;;;3.20;1.80;;;;;;;;;;4969572;28;20270;-74
2023/07/14 12:09:04;;;;;;;2.13;1.70;;;;;;;;;;5020674;28;20195;-74
2023/07/14 12:11:44;;;;;;;3.03;2.07;;;;;;;;;;5032344;28;20186;-72
2023/07/14 12:14:29;;;;;;;2.50;1.60;;;;;;;;;;5028421;28;20298;-73
2023/07/14 12:16:56;;;;;;;2.80;1.90;;;;;;;;;;5030177;28;20527;-73
2023/07/14 12:19:27;;;;;;;2.73;1.90;;;;;;;;;;5024323;28;20197;-74
2023/07/14 12:22:05;;;;;;;3.10;1.80;;;;;;;;;;5026998;28;20692;-79
2023/07/14 12:24:34;;;;;;;3.13;1.80;;;;;;;;;;5026348;28;20247;-73
2023/07/14 12:27:12;;;;;;;2.33;1.70;;;;;;;;;;5026776;28;20744;-76
2023/07/14 12:29:38;;;;;;;2.27;1.80;;;;;;;;;;5027609;28;20260;-73
2023/07/14 12:32:16;;;;;;;3.23;1.90;;;;;;;;;;5028087;28;20213;-75
2023/07/14 12:34:44;;;;;;;2.60;1.90;;;;;;;;;;5027538;28;20206;-72
2023/07/14 12:37:18;;;;;;;3.07;1.87;;;;;;;;;;5026692;28;20183;-72
2023/07/14 12:39:54;;;;;;;3.73;1.97;;;;;;;;;;5026002;28;20197;-73
2023/07/14 12:42:21;;;;;;;2.97;1.63;;;;;;;;;;5027429;28;20220;-72
2023/07/14 12:44:47;;;;;;;4.70;2.10;;;;;;;;;;5027164;28;20253;-75
2023/07/14 12:47:22;;;;;;;4.33;2.20;;;;;;;;;;5027767;28;20634;-72
2023/07/14 12:49:49;;;;;;;3.43;2.10;;;;;;;;;;5026972;28;20197;-72
2023/07/14 12:52:29;;;;;;;4.07;2.03;;;;;;;;;;5026279;28;20527;-73
2023/07/14 12:55:00;;;;;;;5.70;1.97;;;;;;;;;;5026765;28;20211;-73
2023/07/14 12:57:30;;;;;;;3.87;1.97;;;;;;;;;;5027853;28;20188;-74
2023/07/14 12:59:56;;;;;;;2.40;2.03;;;;;;;;;;5026555;28;20650;-73
2023/07/14 13:02:24;;;;;;;3.13;1.83;;;;;;;;;;5027271;28;20601;-72
2023/07/14 13:04:53;;;;;;;5.20;1.87;;;;;;;;;;5026280;28;20209;-77
2023/07/14 13:07:21;;;;;;;3.43;2.00;;;;;;;;;;5026524;28;20580;-71
2023/07/14 13:10:10;;;;;;;6.87;2.37;;;;;;;;;;5025787;28;20241;-77
2023/07/14 13:12:36;;;;;;;6.93;2.30;;;;;;;;;;5025561;28;20210;-72
2023/07/14 13:15:03;;;;;;;3.80;2.40;;;;;;;;;;5025777;28;20257;-71
2023/07/14 13:17:30;;;;;;;9.57;2.30;;;;;;;;;;5027186;28;20182;-77
2023/07/14 13:20:07;;;;;;;4.17;2.20;;;;;;;;;;5026134;28;20235;-72
2023/07/14 13:22:36;;;;;;;5.00;2.00;;;;;;;;;;5024591;28;20730;-74
2023/07/14 13:25:04;;;;;;;4.57;2.20;;;;;;;;;;5024980;28;20206;-74
2023/07/14 13:27:31;;;;;;;4.13;2.10;;;;;;;;;;5024249;28;20187;-72
2023/07/14 13:30:01;;;;;;;5.40;2.30;;;;;;;;;;5026166;28;20169;-72
2023/07/14 13:32:27;;;;;;;11.93;2.43;;;;;;;;;;5026532;28;20208;-75
2023/07/14 13:34:56;;;;;;;3.77;2.10;;;;;;;;;;5025456;28;20282;-72
2023/07/14 13:37:23;;;;;;;2.37;2.13;;;;;;;;;;5026004;28;20823;-72
2023/07/14 13:39:57;;;;;;;4.03;2.20;;;;;;;;;;5025780;28;20189;-72
2023/07/14 13:42:33;;;;;;;3.77;2.13;;;;;;;;;;5025107;28;20700;-74
2023/07/14 13:45:00;;;;;;;2.20;1.90;;;;;;;;;;5026574;28;20207;-72
2023/07/14 13:47:28;;;;;;;3.23;2.20;;;;;;;;;;5026815;28;20783;-73
2023/07/14 13:49:58;;;;;;;7.37;2.10;;;;;;;;;;5026081;28;20303;-73
2023/07/14 13:52:27;;;;;;;2.67;2.00;;;;;;;;;;5026481;28;20208;-72
2023/07/14 13:54:58;;;;;;;3.47;2.03;;;;;;;;;;5025802;28;20700;-72
2023/07/14 13:57:25;;;;;;;3.17;2.10;;;;;;;;;;5023299;28;20183;-75
2023/07/14 13:59:51;;;;;;;2.90;2.07;;;;;;;;;;5026128;28;20515;-73
2023/07/14 14:02:26;;;;;;;5.07;1.83;;;;;;;;;;5033393;28;20215;-72
2023/07/14 14:04:53;;;;;;;2.77;2.00;;;;;;;;;;5034868;28;20298;-73
2023/07/14 14:07:19;;;;;;;2.37;1.97;;;;;;;;;;5034029;28;20196;-74
2023/07/14 14:09:46;;;;;;;2.10;1.90;;;;;;;;;;5034032;28;20757;-72
2023/07/14 14:12:14;;;;;;;3.17;2.00;;;;;;;;;;5034110;28;20690;-73
2023/07/14 14:14:40;;;;;;;2.20;1.87;;;;;;;;;;5033199;28;20203;-73
2023/07/14 14:17:20;;;;;;;2.10;1.90;;;;;;;;;;5033590;28;20185;-72
2023/07/14 14:19:46;;;;;;;3.43;1.90;;;;;;;;;;5033734;28;20179;-72
2023/07/14 14:22:13;;;;;;;2.67;2.00;;;;;;;;;;5034485;28;20206;-72
2023/07/14 14:24:39;;;;;;;2.10;1.90;;;;;;;;;;5034331;28;20197;-73
2023/07/14 14:27:06;;;;;;;2.73;1.80;;;;;;;;;;5034407;28;20185;-73
2023/07/14 14:29:32;;;;;;;3.87;2.00;;;;;;;;;;5033795;28;20594;-74
2023/07/14 14:31:58;;;;;;;1.87;1.73;;;;;;;;;;5029235;28;20250;-73
2023/07/14 14:34:25;;;;;;;3.40;1.60;;;;;;;;;;5025590;28;20571;-73
2023/07/14 14:36:51;;;;;;;1.90;1.70;;;;;;;;;;5033933;28;20200;-73
2023/07/14 14:39:21;;;;;;;1.73;1.63;;;;;;;;;;5033689;28;20180;-73
2023/07/14 14:41:47;;;;;;;3.70;1.88;;;;;;;;;;5034069;28;20671;-73
2023/07/14 14:44:21;;;;;;;1.90;1.70;;;;;;;;;;5033970;28;20590;-73
2023/07/14 14:46:47;;;;;;;3.10;1.70;;;;;;;;;;5033314;28;20190;-73
2023/07/14 14:49:15;;;;;;;2.00;1.55;;;;;;;;;;5026446;28;20213;-75
2023/07/14 14:51:41;;;;;;;1.95;1.35;;;;;;;;;;5028726;28;20234;-77
2023/07/14 14:54:08;;;;;;;2.65;1.60;;;;;;;;;;5029288;28;20217;-76